Time;durP1;ratioP1;P1;durP2;ratioP2;P2;SDS_P1;SDS_P2;PMS_P1;PMS_P2;Temp;Humidity;BMP_temperature;BMP_pressure;BME280_temperature;BME280_humidity;BME280_pressure;Samples;Min_cycle;Max_cycle;Signal;HPM_P1;HPM_P2
2022/12/30 00:01:05;;;;;;;12.30;3.10;;;6.70;99.90;;;;;;5065973;28;20628;-51
2022/12/30 00:03:34;;;;;;;12.10;3.50;;;6.70;99.90;;;;;;5058664;28;20223;-50
2022/12/30 00:06:04;;;;;;;13.27;3.93;;;6.80;99.90;;;;;;5053497;28;20293;-47
2022/12/30 00:08:47;;;;;;;10.47;2.77;;;6.80;99.90;;;;;;5052454;28;20306;-50
2022/12/30 00:11:17;;;;;;;11.10;3.30;;;6.80;99.90;;;;;;5052078;28;20702;-50
2022/12/30 00:33:28;;;;;;;13.47;3.40;;;6.90;99.90;;;;;;5051413;28;20235;-51
2022/12/30 00:35:57;;;;;;;9.13;3.23;;;6.90;99.90;;;;;;5050974;28;20273;-50
2022/12/30 00:38:26;;;;;;;12.63;3.30;;;6.90;99.90;;;;;;5052438;28;20255;-50
2022/12/30 00:43:40;;;;;;;12.57;3.10;;;6.90;99.90;;;;;;5050904;28;20331;-51
2022/12/30 00:46:09;;;;;;;16.17;3.30;;;6.90;99.90;;;;;;5052811;28;20238;-51
2022/12/30 00:56:56;;;;;;;13.63;3.80;;;6.90;99.90;;;;;;5052857;28;20220;-52
2022/12/30 00:59:23;;;;;;;12.93;4.10;;;6.90;99.90;;;;;;5052514;28;20274;-51
2022/12/30 01:01:52;;;;;;;17.13;4.17;;;6.90;99.90;;;;;;5052198;28;20715;-49
2022/12/30 01:04:20;;;;;;;14.90;3.77;;;6.90;99.90;;;;;;5052659;28;20432;-52
2022/12/30 01:06:52;;;;;;;14.73;4.10;;;6.90;99.90;;;;;;5052690;28;20224;-49
2022/12/30 01:09:22;;;;;;;11.70;3.60;;;6.80;99.90;;;;;;5052442;28;20765;-49
2022/12/30 01:12:07;;;;;;;12.00;3.20;;;6.90;99.90;;;;;;5052705;28;20266;-51
2022/12/30 01:14:38;;;;;;;13.13;3.63;;;6.90;99.90;;;;;;5052583;28;20230;-50
2022/12/30 01:17:07;;;;;;;14.43;3.97;;;6.80;99.90;;;;;;5052736;28;20231;-50
2022/12/30 01:19:35;;;;;;;13.40;4.20;;;6.80;99.90;;;;;;5052378;28;20247;-51
2022/12/30 01:22:04;;;;;;;14.10;3.37;;;6.80;99.90;;;;;;5052729;28;20311;-52
2022/12/30 01:24:33;;;;;;;17.13;4.03;;;6.80;99.90;;;;;;5052533;28;20584;-51
2022/12/30 01:27:01;;;;;;;16.90;4.10;;;6.90;99.90;;;;;;5052078;28;20228;-50
2022/12/30 01:29:34;;;;;;;12.67;3.37;;;6.90;99.90;;;;;;5056232;28;20223;-51
2022/12/30 01:32:02;;;;;;;14.03;3.93;;;6.90;99.90;;;;;;5056123;28;20602;-50
2022/12/30 01:34:30;;;;;;;13.13;3.57;;;6.80;99.90;;;;;;5055874;28;20259;-52
2022/12/30 01:36:58;;;;;;;15.10;3.70;;;6.80;99.90;;;;;;5056473;28;20590;-51
2022/12/30 01:39:27;;;;;;;12.10;3.87;;;6.90;99.90;;;;;;5055771;28;20220;-51
2022/12/30 01:41:57;;;;;;;19.10;4.00;;;6.90;99.90;;;;;;5056063;28;20462;-50
2022/12/30 01:44:57;;;;;;;13.93;3.83;;;6.90;99.90;;;;;;5056440;28;20637;-50
2022/12/30 01:47:32;;;;;;;15.60;3.53;;;6.90;99.90;;;;;;5014259;28;20229;-52
2022/12/30 01:50:04;;;;;;;10.73;3.90;;;6.80;99.90;;;;;;5049282;28;20289;-50
2022/12/30 01:52:34;;;;;;;15.07;4.03;;;6.80;99.90;;;;;;5056159;28;20246;-51
2022/12/30 01:55:06;;;;;;;12.37;3.67;;;6.80;99.90;;;;;;5056074;28;20230;-48
2022/12/30 01:57:38;;;;;;;10.23;3.40;;;6.80;99.90;;;;;;5052775;28;20477;-49
2022/12/30 02:00:08;;;;;;;11.33;3.10;;;6.80;99.90;;;;;;5055818;28;20260;-51
2022/12/30 02:02:40;;;;;;;17.77;4.67;;;6.80;99.90;;;;;;5054982;28;20736;-52
2022/12/30 02:05:10;;;;;;;13.60;4.00;;;6.80;99.90;;;;;;5055959;28;20259;-50
2022/12/30 02:07:43;;;;;;;14.17;3.43;;;6.80;99.90;;;;;;5055187;28;20212;-50
2022/12/30 02:10:12;;;;;;;16.53;3.60;;;6.80;99.90;;;;;;5045651;28;20227;-51
2022/12/30 02:12:41;;;;;;;14.87;3.43;;;6.80;99.90;;;;;;5055757;28;20966;-48
2022/12/30 02:15:10;;;;;;;16.50;3.80;;;6.80;99.90;;;;;;5055650;28;20243;-48
2022/12/30 02:17:52;;;;;;;15.40;3.77;;;6.80;99.90;;;;;;5055661;28;20224;-50
2022/12/30 02:20:59;;;;;;;17.87;3.97;;;6.80;99.90;;;;;;5054479;28;20240;-50
2022/12/30 02:23:59;;;;;;;18.50;3.97;;;6.80;99.90;;;;;;5054284;28;20235;-50
2022/12/30 02:27:06;;;;;;;16.30;4.20;;;6.80;99.90;;;;;;5053998;28;20220;-52
2022/12/30 02:30:00;;;;;;;16.47;4.00;;;6.70;99.90;;;;;;5049511;28;20909;-52
2022/12/30 02:32:36;;;;;;;13.67;3.37;;;6.70;99.90;;;;;;5053434;28;20235;-51
2022/12/30 02:35:13;;;;;;;16.93;3.60;;;6.70;99.90;;;;;;5053955;28;20243;-51
2022/12/30 02:37:50;;;;;;;15.03;3.53;;;6.70;99.90;;;;;;5053229;28;20461;-49
2022/12/30 02:40:25;;;;;;;16.10;4.20;;;6.80;99.90;;;;;;5044436;28;20242;-51
2022/12/30 02:45:50;;;;;;;16.57;3.10;;;6.80;99.90;;;;;;5053749;28;20282;-51
2022/12/30 02:48:23;;;;;;;15.53;3.23;;;6.90;99.90;;;;;;5053971;28;20458;-48
2022/12/30 02:53:41;;;;;;;15.00;3.63;;;6.90;99.90;;;;;;5053691;28;20224;-52
2022/12/30 02:56:10;;;;;;;15.87;3.37;;;6.90;99.90;;;;;;5054207;28;20228;-50
2022/12/30 02:58:39;;;;;;;12.37;2.90;;;6.90;99.90;;;;;;5053376;28;20234;-50
2022/12/30 03:04:13;;;;;;;13.60;3.53;;;7.00;99.90;;;;;;5053431;28;20216;-51
2022/12/30 03:07:05;;;;;;;17.00;3.40;;;7.00;99.90;;;;;;5053520;28;20219;-50
2022/12/30 03:12:50;;;;;;;11.10;3.03;;;7.00;99.90;;;;;;5053305;28;20238;-51
2022/12/30 03:15:23;;;;;;;10.40;2.90;;;7.00;99.90;;;;;;5053501;28;20938;-52
2022/12/30 03:17:53;;;;;;;14.73;3.63;;;7.10;99.90;;;;;;5053462;28;20277;-49
2022/12/30 03:20:24;;;;;;;14.80;3.40;;;7.10;99.90;;;;;;5015638;28;1104263;-51
2022/12/30 03:28:29;;;;;;;13.83;3.43;;;7.10;99.90;;;;;;5051334;28;20220;-52
2022/12/30 03:31:01;;;;;;;14.43;3.60;;;7.10;99.90;;;;;;5053905;28;20243;-50
2022/12/30 03:33:30;;;;;;;14.60;4.00;;;7.10;99.90;;;;;;5053771;28;20223;-51
2022/12/30 03:36:07;;;;;;;15.57;4.03;;;7.20;99.90;;;;;;5054154;28;20613;-50
2022/12/30 03:38:40;;;;;;;18.03;3.27;;;7.10;99.90;;;;;;5053845;28;20224;-51
2022/12/30 03:41:10;;;;;;;11.43;3.40;;;7.10;99.90;;;;;;5053954;28;20236;-50
2022/12/30 03:43:38;;;;;;;12.40;3.60;;;7.20;99.90;;;;;;5053805;28;20216;-52
2022/12/30 03:46:07;;;;;;;17.60;4.07;;;7.20;99.90;;;;;;5053932;28;20220;-51
2022/12/30 03:48:35;;;;;;;14.67;3.67;;;7.10;99.90;;;;;;5053243;28;20645;-50
2022/12/30 03:51:05;;;;;;;14.87;3.83;;;7.20;99.90;;;;;;5054114;28;20239;-48
2022/12/30 03:53:33;;;;;;;16.63;3.27;;;7.20;99.90;;;;;;5053953;28;20263;-50
2022/12/30 03:56:01;;;;;;;13.83;3.73;;;7.20;99.90;;;;;;5053959;28;20232;-50
2022/12/30 03:58:29;;;;;;;15.50;3.63;;;7.20;99.90;;;;;;5053012;28;20227;-49
2022/12/30 04:00:57;;;;;;;14.50;3.17;;;7.20;99.90;;;;;;5053223;28;20742;-50
2022/12/30 04:03:25;;;;;;;17.70;3.77;;;7.20;99.90;;;;;;5053450;28;20226;-52
2022/12/30 04:05:54;;;;;;;17.53;3.50;;;7.20;99.90;;;;;;5053813;28;20688;-50
2022/12/30 04:08:24;;;;;;;12.93;3.33;;;7.20;99.90;;;;;;5053368;28;20232;-53
2022/12/30 04:10:52;;;;;;;13.77;3.47;;;7.20;99.90;;;;;;5053576;28;20240;-51
2022/12/30 04:13:20;;;;;;;19.27;3.77;;;7.20;99.90;;;;;;5052361;28;20690;-49
2022/12/30 04:15:49;;;;;;;16.87;3.70;;;7.20;99.90;;;;;;5053032;28;20223;-50
2022/12/30 04:18:18;;;;;;;14.70;3.63;;;7.20;99.90;;;;;;5053237;28;20236;-50
2022/12/30 04:20:46;;;;;;;9.80;3.40;;;7.20;99.90;;;;;;5052855;28;20243;-51
2022/12/30 04:23:15;;;;;;;14.90;3.60;;;7.20;99.90;;;;;;5053717;28;20238;-51
2022/12/30 04:25:44;;;;;;;13.70;3.63;;;7.20;99.90;;;;;;5053232;28;20311;-51
2022/12/30 04:28:13;;;;;;;18.67;3.70;;;7.20;99.90;;;;;;5053197;28;20227;-52
2022/12/30 04:30:41;;;;;;;17.07;3.87;;;7.20;99.90;;;;;;5052784;28;20231;-51
2022/12/30 04:33:09;;;;;;;12.30;4.13;;;7.20;99.90;;;;;;5052697;28;20231;-51
2022/12/30 04:35:37;;;;;;;13.27;3.43;;;7.20;99.90;;;;;;5048663;28;20228;-50
2022/12/30 04:38:05;;;;;;;10.77;3.47;;;7.10;99.90;;;;;;5053367;28;20233;-51
2022/12/30 04:40:33;;;;;;;15.17;3.73;;;7.10;99.90;;;;;;5052949;28;20223;-50
2022/12/30 04:43:03;;;;;;;12.60;2.90;;;7.10;99.90;;;;;;5052645;28;20224;-50
2022/12/30 04:45:31;;;;;;;13.77;3.63;;;7.10;99.90;;;;;;5052562;28;20234;-49
2022/12/30 04:47:59;;;;;;;11.43;3.43;;;7.20;99.90;;;;;;5053098;28;20649;-51
2022/12/30 04:50:27;;;;;;;14.80;3.70;;;7.20;99.90;;;;;;5052685;28;20220;-51
2022/12/30 04:52:55;;;;;;;17.03;4.40;;;7.20;99.90;;;;;;5053022;28;20227;-52
2022/12/30 04:55:23;;;;;;;14.07;3.60;;;7.10;99.90;;;;;;5053020;28;20228;-50
2022/12/30 04:57:51;;;;;;;14.33;4.03;;;7.10;99.90;;;;;;5052849;28;20278;-51
2022/12/30 05:00:21;;;;;;;14.27;4.07;;;7.10;99.90;;;;;;5051898;28;20216;-51
2022/12/30 05:02:49;;;;;;;14.80;3.90;;;7.10;99.90;;;;;;5052454;28;20228;-48
2022/12/30 05:05:17;;;;;;;15.47;4.00;;;7.10;99.90;;;;;;5052646;28;20318;-50
2022/12/30 05:07:45;;;;;;;15.73;3.90;;;7.10;99.90;;;;;;5052576;28;20687;-49
2022/12/30 05:10:13;;;;;;;14.97;3.70;;;7.10;99.90;;;;;;5052422;28;20231;-53
2022/12/30 05:12:41;;;;;;;15.93;4.30;;;7.10;99.90;;;;;;5052023;28;20224;-51
2022/12/30 05:15:11;;;;;;;14.57;4.20;;;7.10;99.90;;;;;;5052411;28;20219;-50
2022/12/30 05:17:41;;;;;;;11.70;4.13;;;7.10;99.90;;;;;;5052316;28;20261;-51
2022/12/30 05:20:10;;;;;;;16.03;4.90;;;7.10;99.90;;;;;;5052445;28;20247;-50
2022/12/30 05:22:38;;;;;;;15.27;4.17;;;7.00;99.90;;;;;;5052281;28;20234;-52
2022/12/30 05:27:52;;;;;;;11.43;4.03;;;7.00;99.90;;;;;;5052278;28;20226;-49
2022/12/30 05:30:20;;;;;;;19.80;4.27;;;7.10;99.90;;;;;;5052031;28;20247;-51
2022/12/30 05:32:50;;;;;;;15.93;4.60;;;7.10;99.90;;;;;;5052116;28;20215;-50
2022/12/30 05:35:18;;;;;;;14.23;4.73;;;7.00;99.90;;;;;;5052547;28;20618;-51
2022/12/30 05:37:46;;;;;;;14.10;4.97;;;7.00;99.90;;;;;;5052392;28;20232;-51
2022/12/30 05:40:15;;;;;;;11.50;4.27;;;6.90;99.90;;;;;;5052433;28;20600;-50
2022/12/30 05:42:43;;;;;;;16.60;5.00;;;6.90;99.90;;;;;;5052029;28;20722;-51
2022/12/30 05:45:11;;;;;;;15.77;4.97;;;6.90;99.90;;;;;;5046846;28;20561;-51
2022/12/30 05:47:40;;;;;;;15.17;4.70;;;6.90;99.90;;;;;;5052046;28;20231;-50
2022/12/30 05:50:09;;;;;;;20.53;4.50;;;6.90;99.90;;;;;;5052282;28;20227;-49
2022/12/30 05:52:37;;;;;;;14.93;4.70;;;6.80;99.90;;;;;;5052556;28;20231;-50
2022/12/30 05:55:06;;;;;;;15.03;5.03;;;6.80;99.90;;;;;;5051837;28;20228;-50
2022/12/30 05:57:34;;;;;;;18.80;4.73;;;6.80;99.90;;;;;;5049443;28;20224;-52
2022/12/30 06:00:04;;;;;;;12.97;4.93;;;6.70;99.90;;;;;;5052093;28;20232;-49
2022/12/30 06:02:33;;;;;;;16.57;5.10;;;6.70;99.90;;;;;;5050099;28;20266;-52
2022/12/30 06:05:10;;;;;;;15.50;4.80;;;6.70;99.90;;;;;;5052384;28;20224;-51
2022/12/30 06:07:38;;;;;;;21.40;6.00;;;6.60;99.90;;;;;;5052313;28;20587;-50
2022/12/30 06:10:07;;;;;;;13.67;4.80;;;6.60;99.90;;;;;;5051770;28;20235;-53
2022/12/30 06:12:35;;;;;;;16.83;5.00;;;6.50;99.90;;;;;;5052844;28;20227;-49
2022/12/30 06:15:04;;;;;;;14.40;4.70;;;6.50;99.90;;;;;;5055938;28;20575;-51
2022/12/30 06:17:32;;;;;;;15.03;5.00;;;6.50;99.90;;;;;;5054522;28;20687;-52
2022/12/30 06:20:00;;;;;;;14.03;4.87;;;6.50;99.90;;;;;;5055378;28;20247;-52
2022/12/30 06:22:29;;;;;;;10.53;4.90;;;6.50;99.90;;;;;;5055362;28;20311;-50
2022/12/30 06:24:57;;;;;;;15.03;5.37;;;6.40;99.90;;;;;;5055764;28;20232;-51
2022/12/30 06:27:25;;;;;;;12.53;4.40;;;6.40;99.90;;;;;;5055227;28;20233;-52
2022/12/30 06:29:53;;;;;;;14.67;5.20;;;6.30;99.90;;;;;;5054512;28;20234;-51
2022/12/30 06:32:21;;;;;;;17.67;5.27;;;6.30;99.90;;;;;;5054800;28;20232;-52
2022/12/30 06:34:50;;;;;;;17.23;5.40;;;6.30;99.90;;;;;;5055133;28;20227;-51
2022/12/30 06:37:18;;;;;;;14.17;5.00;;;6.30;99.90;;;;;;5055271;28;20224;-52
2022/12/30 06:39:47;;;;;;;16.33;5.30;;;6.30;99.90;;;;;;5055311;28;20980;-52
2022/12/30 06:42:15;;;;;;;12.37;4.77;;;6.20;99.90;;;;;;5054838;28;20236;-51
2022/12/30 06:44:43;;;;;;;13.50;4.97;;;6.20;99.90;;;;;;5054902;28;20254;-52
2022/12/30 06:47:11;;;;;;;16.10;5.63;;;6.20;99.90;;;;;;5055458;28;20804;-52
2022/12/30 06:49:39;;;;;;;15.67;5.23;;;6.10;99.90;;;;;;5054752;28;20227;-51
2022/12/30 06:52:07;;;;;;;13.30;5.43;;;6.10;99.90;;;;;;5054864;28;20473;-50
2022/12/30 06:54:35;;;;;;;14.07;5.37;;;6.10;99.90;;;;;;5042571;28;20233;-50
2022/12/30 06:57:05;;;;;;;14.87;4.80;;;6.00;99.90;;;;;;5051794;28;20220;-51
2022/12/30 06:59:33;;;;;;;16.27;5.13;;;6.00;99.90;;;;;;5054504;28;20220;-51
2022/12/30 07:02:01;;;;;;;14.30;5.03;;;6.10;99.90;;;;;;5054055;28;20236;-52
2022/12/30 07:04:29;;;;;;;14.50;4.80;;;6.10;99.90;;;;;;5053990;28;21012;-51
2022/12/30 07:06:57;;;;;;;12.43;5.20;;;6.00;99.90;;;;;;5054965;28;20477;-50
2022/12/30 07:09:25;;;;;;;15.50;5.23;;;6.00;99.90;;;;;;5054759;28;20231;-50
2022/12/30 07:11:53;;;;;;;12.03;5.03;;;5.90;99.90;;;;;;5054444;28;20462;-51
2022/12/30 07:14:22;;;;;;;17.27;5.60;;;6.00;99.90;;;;;;5054757;28;20234;-50
2022/12/30 07:16:50;;;;;;;13.63;5.57;;;6.00;99.90;;;;;;5054420;28;20455;-51
2022/12/30 07:19:18;;;;;;;14.13;6.27;;;6.00;99.90;;;;;;5054549;28;20493;-49
2022/12/30 07:21:46;;;;;;;12.70;5.17;;;6.00;99.90;;;;;;5054424;28;20232;-48
2022/12/30 07:24:14;;;;;;;11.33;5.40;;;5.90;99.90;;;;;;5053135;28;20469;-51
2022/12/30 07:26:42;;;;;;;15.20;5.63;;;5.90;99.90;;;;;;5054463;28;20477;-51
2022/12/30 07:29:12;;;;;;;19.27;5.93;;;5.90;99.90;;;;;;5054370;28;20466;-50
2022/12/30 07:31:42;;;;;;;15.90;5.63;;;5.90;99.90;;;;;;5052909;28;20471;-48
2022/12/30 07:34:11;;;;;;;20.53;5.43;;;5.90;99.90;;;;;;5053808;28;20462;-52
2022/12/30 07:36:39;;;;;;;15.10;5.60;;;5.90;99.90;;;;;;5054249;28;20474;-51
2022/12/30 07:39:07;;;;;;;14.50;5.90;;;5.80;99.90;;;;;;5054360;28;20929;-51
2022/12/30 07:41:35;;;;;;;11.03;5.97;;;5.80;99.90;;;;;;5053490;28;20552;-52
2022/12/30 07:44:09;;;;;;;17.77;5.80;;;5.80;99.90;;;;;;5050761;28;20540;-51
2022/12/30 07:46:38;;;;;;;13.67;5.00;;;5.80;99.90;;;;;;5053462;28;20237;-49
2022/12/30 07:49:07;;;;;;;13.27;5.40;;;5.80;99.90;;;;;;5053454;28;20580;-52
2022/12/30 07:51:35;;;;;;;15.67;5.80;;;5.80;99.90;;;;;;5034042;28;20975;-49
2022/12/30 07:54:04;;;;;;;17.33;5.43;;;5.80;99.90;;;;;;5047360;28;20512;-52
2022/12/30 07:56:34;;;;;;;12.33;4.97;;;5.80;99.90;;;;;;5052284;28;20826;-51
2022/12/30 07:59:03;;;;;;;14.70;5.17;;;5.80;99.90;;;;;;5052950;28;20234;-50
2022/12/30 08:01:31;;;;;;;16.93;5.40;;;5.80;99.90;;;;;;5053063;28;20493;-52
2022/12/30 08:03:59;;;;;;;14.53;5.13;;;5.80;99.90;;;;;;5053413;28;20842;-50
2022/12/30 08:06:49;;;;;;;12.30;4.90;;;5.80;99.90;;;;;;5053208;28;20223;-52
2022/12/30 08:09:17;;;;;;;14.50;4.77;;;5.80;99.90;;;;;;5053724;28;20831;-51
2022/12/30 08:11:45;;;;;;;15.10;4.70;;;5.80;99.90;;;;;;5053178;28;20224;-51
2022/12/30 08:14:13;;;;;;;18.13;4.40;;;5.80;99.90;;;;;;5053597;28;20219;-51
2022/12/30 08:16:41;;;;;;;18.37;4.37;;;5.80;99.90;;;;;;5052762;28;20736;-51
2022/12/30 08:19:09;;;;;;;10.97;4.07;;;5.80;99.90;;;;;;5053201;28;20238;-50
2022/12/30 08:21:37;;;;;;;14.30;4.20;;;5.80;99.90;;;;;;5052001;28;20234;-54
2022/12/30 08:24:07;;;;;;;9.93;3.73;;;5.80;99.90;;;;;;5051766;28;20997;-50
2022/12/30 08:26:36;;;;;;;12.60;3.97;;;5.80;99.90;;;;;;5060270;28;20474;-51
2022/12/30 08:29:04;;;;;;;10.80;4.13;;;5.80;99.90;;;;;;5061875;28;20238;-53
2022/12/30 08:31:32;;;;;;;15.07;4.63;;;5.80;99.90;;;;;;5062868;28;20488;-52
2022/12/30 08:34:00;;;;;;;16.27;4.67;;;5.90;99.90;;;;;;5062456;28;20477;-51
2022/12/30 08:36:30;;;;;;;12.40;4.23;;;5.90;99.90;;;;;;5064496;28;20829;-50
2022/12/30 08:39:01;;;;;;;12.70;4.07;;;5.90;99.90;;;;;;5065885;28;20817;-50
2022/12/30 08:41:33;;;;;;;12.73;4.23;;;5.90;99.90;;;;;;5061852;28;20231;-48
2022/12/30 08:44:02;;;;;;;11.50;3.67;;;5.90;99.90;;;;;;5060908;28;20480;-51
2022/12/30 08:46:32;;;;;;;17.20;5.10;;;6.00;99.90;;;;;;5061744;28;20467;-50
2022/12/30 08:49:00;;;;;;;13.53;4.23;;;6.00;99.90;;;;;;5061384;28;20461;-49
2022/12/30 08:51:29;;;;;;;10.30;3.53;;;6.10;99.90;;;;;;5062663;28;20474;-48
2022/12/30 08:53:58;;;;;;;15.57;4.07;;;6.10;99.90;;;;;;5066902;28;20218;-50
2022/12/30 08:56:28;;;;;;;13.47;4.20;;;6.10;99.90;;;;;;5066462;28;20700;-51
2022/12/30 08:58:58;;;;;;;17.73;4.47;;;6.20;99.90;;;;;;5065971;28;20532;-51
2022/12/30 09:01:28;;;;;;;17.17;4.43;;;6.20;99.90;;;;;;5065851;28;20226;-51
2022/12/30 09:03:57;;;;;;;14.70;4.40;;;6.20;99.90;;;;;;5063914;28;20226;-51
2022/12/30 09:06:27;;;;;;;14.03;4.80;;;6.30;99.90;;;;;;5066845;28;20227;-48
2022/12/30 09:08:56;;;;;;;13.83;4.50;;;6.30;99.90;;;;;;5067036;28;20470;-50
2022/12/30 09:11:28;;;;;;;16.90;4.40;;;6.30;99.90;;;;;;5066679;28;20222;-51
2022/12/30 09:13:59;;;;;;;12.23;3.63;;;6.30;99.90;;;;;;5064961;28;20548;-51
2022/12/30 09:16:29;;;;;;;14.70;3.53;;;6.40;99.90;;;;;;5064638;28;20272;-51
2022/12/30 09:18:57;;;;;;;15.23;5.37;;;6.40;99.90;;;;;;5062173;28;20246;-51
2022/12/30 09:21:26;;;;;;;11.07;3.60;;;6.40;99.90;;;;;;5063342;28;20249;-53
2022/12/30 09:23:54;;;;;;;9.53;3.47;;;6.40;99.90;;;;;;5061157;28;20338;-51
2022/12/30 09:26:24;;;;;;;12.43;3.83;;;6.40;99.90;;;;;;5059382;28;20242;-52
2022/12/30 09:28:53;;;;;;;16.50;4.47;;;6.40;99.90;;;;;;5062373;28;20289;-51
2022/12/30 09:31:22;;;;;;;13.60;3.87;;;6.50;99.90;;;;;;5061853;28;20486;-51
2022/12/30 09:33:51;;;;;;;17.30;4.03;;;6.50;99.90;;;;;;5061859;28;20216;-51
2022/12/30 09:36:19;;;;;;;13.23;3.87;;;6.50;99.90;;;;;;5063413;28;20582;-54
2022/12/30 09:38:48;;;;;;;18.13;4.23;;;6.60;99.90;;;;;;5064194;28;20691;-52
2022/12/30 09:43:15;;;;;;;16.23;4.03;;;6.60;99.90;;;;;;5062311;28;20234;-52
2022/12/30 09:44:24;;;;;;;15.27;4.20;;;6.60;99.90;;;;;;5063078;28;20230;-49
2022/12/30 09:47:02;;;;;;;13.53;3.90;;;6.60;99.90;;;;;;5064169;28;20230;-51
2022/12/30 09:49:36;;;;;;;12.73;3.87;;;6.70;99.90;;;;;;5066535;28;20294;-49
2022/12/30 09:52:08;;;;;;;15.50;4.57;;;6.70;99.90;;;;;;5066079;28;20313;-49
2022/12/30 09:54:41;;;;;;;13.30;3.97;;;6.80;99.90;;;;;;5067623;28;20238;-50
2022/12/30 09:57:31;;;;;;;14.30;4.00;;;6.80;99.90;;;;;;5067036;28;20241;-51
2022/12/30 10:00:04;;;;;;;18.07;3.10;;;6.80;99.90;;;;;;5068958;28;20223;-49
2022/12/30 10:02:56;;;;;;;11.10;3.10;;;6.80;99.90;;;;;;5068239;28;20713;-53
2022/12/30 10:05:37;;;;;;;13.83;3.00;;;6.80;99.90;;;;;;5069365;28;20223;-48
2022/12/30 10:08:20;;;;;;;12.63;3.27;;;6.80;99.90;;;;;;5068507;28;20614;-51
2022/12/30 10:10:53;;;;;;;13.97;3.60;;;6.90;99.90;;;;;;5065272;28;20260;-51
2022/12/30 10:13:29;;;;;;;11.87;3.60;;;7.00;99.90;;;;;;5065028;28;20220;-53
2022/12/30 10:16:03;;;;;;;11.33;2.70;;;7.10;99.90;;;;;;5065220;28;20223;-50
2022/12/30 10:19:02;;;;;;;10.90;2.80;;;7.10;99.90;;;;;;5063467;28;20559;-51
2022/12/30 10:21:39;;;;;;;8.53;2.60;;;7.20;99.90;;;;;;5062559;28;20220;-52
2022/12/30 10:24:19;;;;;;;9.80;2.70;;;7.30;99.90;;;;;;5064705;28;20237;-47
2022/12/30 10:26:49;;;;;;;14.17;2.90;;;7.30;99.90;;;;;;5067662;28;20699;-50
2022/12/30 10:29:19;;;;;;;9.77;3.30;;;7.40;99.90;;;;;;5057773;28;20557;-49
2022/12/30 10:31:50;;;;;;;13.73;2.77;;;7.40;99.90;;;;;;5054782;28;20243;-49
2022/12/30 10:34:22;;;;;;;14.47;2.90;;;7.50;99.90;;;;;;5055404;28;20231;-48
2022/12/30 10:36:58;;;;;;;13.53;2.80;;;7.50;99.90;;;;;;5054960;28;20458;-50
2022/12/30 10:39:30;;;;;;;11.37;2.70;;;7.50;99.90;;;;;;5054881;28;20232;-48
2022/12/30 10:42:24;;;;;;;10.43;2.73;;;7.50;99.90;;;;;;5055351;28;20240;-51
2022/12/30 10:45:06;;;;;;;9.63;2.20;;;7.40;99.90;;;;;;5054767;28;20282;-51
2022/12/30 10:47:50;;;;;;;8.73;2.30;;;7.40;99.90;;;;;;5055271;28;20235;-50
2022/12/30 10:50:31;;;;;;;7.80;2.20;;;7.40;99.90;;;;;;5055180;28;20235;-49
2022/12/30 10:53:01;;;;;;;10.30;3.03;;;7.40;99.90;;;;;;5054993;28;20236;-51
2022/12/30 10:55:32;;;;;;;9.93;3.13;;;7.30;99.90;;;;;;5055088;28;20264;-50
2022/12/30 10:58:02;;;;;;;9.63;2.60;;;7.40;99.90;;;;;;5054753;28;20235;-51
2022/12/30 11:00:35;;;;;;;12.20;2.70;;;7.40;99.90;;;;;;5054570;28;20247;-50
2022/12/30 11:03:11;;;;;;;10.60;2.43;;;7.30;99.90;;;;;;5054602;28;20231;-51
2022/12/30 11:05:41;;;;;;;11.17;2.47;;;7.30;99.90;;;;;;5054607;28;20634;-52
2022/12/30 11:08:23;;;;;;;11.13;2.53;;;7.30;99.90;;;;;;5054885;28;20240;-51
2022/12/30 11:11:01;;;;;;;9.07;2.57;;;7.30;99.90;;;;;;5054850;28;20220;-51
2022/12/30 11:16:22;;;;;;;12.73;2.97;;;7.30;99.90;;;;;;5054846;28;20619;-51
2022/12/30 11:18:51;;;;;;;8.90;2.43;;;7.30;99.90;;;;;;5054321;28;20293;-51
2022/12/30 11:21:26;;;;;;;9.77;2.40;;;7.30;99.90;;;;;;5054629;28;20753;-50
2022/12/30 11:23:55;;;;;;;10.70;2.90;;;7.40;99.90;;;;;;5053755;28;20226;-51
2022/12/30 11:26:26;;;;;;;11.07;2.60;;;7.30;99.90;;;;;;5052340;28;20228;-52
2022/12/30 11:28:57;;;;;;;11.00;2.50;;;7.30;99.90;;;;;;5054468;28;20239;-51
2022/12/30 11:31:34;;;;;;;9.57;2.33;;;7.30;99.90;;;;;;5054011;28;20240;-51
2022/12/30 11:34:05;;;;;;;6.63;2.17;;;7.30;99.90;;;;;;5051626;28;20227;-51
2022/12/30 11:36:36;;;;;;;8.60;2.00;;;7.30;99.90;;;;;;5053303;28;20220;-52
2022/12/30 11:39:25;;;;;;;7.33;2.37;;;7.30;99.90;;;;;;5054012;28;20707;-50
2022/12/30 11:41:54;;;;;;;9.67;2.50;;;7.30;99.90;;;;;;5052093;28;20611;-50
2022/12/30 11:44:24;;;;;;;9.13;2.27;;;7.40;99.90;;;;;;5063752;28;20219;-53
2022/12/30 11:46:54;;;;;;;9.77;2.27;;;7.40;99.90;;;;;;5060337;28;20264;-51
2022/12/30 11:49:30;;;;;;;7.80;2.13;;;7.30;99.90;;;;;;5065125;28;20706;-53
2022/12/30 11:52:07;;;;;;;9.90;2.67;;;7.40;99.90;;;;;;5062558;28;20549;-48
2022/12/30 11:54:43;;;;;;;13.30;2.40;;;7.40;99.90;;;;;;5063278;28;20222;-53
2022/12/30 11:57:21;;;;;;;10.10;2.67;;;7.50;99.90;;;;;;5066642;28;20238;-48
2022/12/30 11:59:53;;;;;;;6.80;2.00;;;7.40;99.90;;;;;;5065721;28;20235;-52
2022/12/30 12:02:26;;;;;;;8.73;2.40;;;7.50;99.90;;;;;;5063223;28;20227;-51
2022/12/30 12:04:55;;;;;;;10.33;2.43;;;7.50;99.90;;;;;;5066028;28;20774;-52
2022/12/30 12:07:32;;;;;;;8.27;3.37;;;7.50;99.90;;;;;;5067656;28;20289;-51
2022/12/30 12:10:14;;;;;;;12.93;3.33;;;7.50;99.90;;;;;;5065721;28;20277;-51
2022/12/30 12:12:47;;;;;;;9.67;2.67;;;7.50;99.90;;;;;;5066957;28;20231;-50
2022/12/30 12:15:28;;;;;;;7.20;2.10;;;7.50;99.90;;;;;;5065178;28;20219;-51
2022/12/30 12:17:59;;;;;;;8.60;2.30;;;7.50;99.90;;;;;;5065933;28;20606;-49
2022/12/30 12:20:33;;;;;;;8.70;2.20;;;7.50;99.90;;;;;;5066328;28;20733;-51
2022/12/30 12:23:21;;;;;;;8.93;2.23;;;7.50;99.90;;;;;;5065625;28;20222;-50
2022/12/30 12:26:07;;;;;;;7.73;2.10;;;7.60;99.90;;;;;;5063156;28;20662;-53
2022/12/30 12:28:39;;;;;;;7.73;1.70;;;7.60;99.90;;;;;;5063684;28;20223;-53
2022/12/30 12:31:27;;;;;;;7.83;2.07;;;7.70;99.90;;;;;;5065660;28;20246;-50
2022/12/30 12:34:01;;;;;;;10.60;2.27;;;7.70;99.90;;;;;;5061836;28;20587;-51
2022/12/30 12:36:35;;;;;;;5.43;1.90;;;7.90;99.90;;;;;;5064899;28;20223;-51
2022/12/30 12:39:11;;;;;;;8.10;1.80;;;7.90;99.90;;;;;;5067586;28;20225;-48
2022/12/30 12:41:51;;;;;;;4.20;2.10;;;7.90;99.90;;;;;;5063683;28;20222;-50
2022/12/30 12:44:46;;;;;;;6.43;1.80;;;7.90;99.90;;;;;;5060770;28;20296;-49
2022/12/30 12:47:31;;;;;;;7.40;1.63;;;7.90;99.90;;;;;;5037046;28;20234;-50
2022/12/30 12:50:17;;;;;;;6.03;1.80;;;7.90;99.90;;;;;;5065877;28;20231;-47
2022/12/30 12:52:57;;;;;;;6.83;2.10;;;7.90;99.90;;;;;;5063279;28;20227;-50
2022/12/30 12:55:49;;;;;;;4.70;2.03;;;7.90;99.90;;;;;;5064760;28;20235;-50
2022/12/30 12:58:24;;;;;;;5.33;1.60;;;7.80;99.90;;;;;;5063989;28;20234;-51
2022/12/30 13:01:00;;;;;;;5.20;1.63;;;7.80;99.90;;;;;;5062423;28;20714;-51
2022/12/30 13:03:46;;;;;;;7.47;1.90;;;7.80;99.90;;;;;;5064277;28;20611;-49
2022/12/30 13:06:21;;;;;;;6.70;1.70;;;7.80;99.90;;;;;;5066510;28;20223;-47
2022/12/30 13:09:11;;;;;;;6.10;1.90;;;7.80;99.90;;;;;;5066481;28;20239;-50
2022/12/30 13:11:48;;;;;;;4.37;1.90;;;7.80;99.90;;;;;;5063495;28;20223;-51
2022/12/30 13:14:28;;;;;;;6.03;2.00;;;7.80;99.90;;;;;;5064342;28;20641;-49
2022/12/30 13:17:01;;;;;;;4.83;2.00;;;7.70;99.90;;;;;;5066012;28;20219;-47
2022/12/30 13:19:33;;;;;;;6.87;1.83;;;7.70;99.90;;;;;;5066439;28;20337;-51
2022/12/30 13:22:06;;;;;;;7.63;1.93;;;7.70;99.90;;;;;;5065894;28;20231;-50
2022/12/30 13:24:38;;;;;;;4.57;1.60;;;7.70;99.90;;;;;;5067864;28;20226;-49
2022/12/30 13:27:14;;;;;;;7.87;2.07;;;7.70;99.90;;;;;;5067492;28;20687;-51
2022/12/30 13:29:42;;;;;;;5.63;1.53;;;7.70;99.90;;;;;;5066309;28;20224;-51
2022/12/30 13:32:17;;;;;;;6.73;1.50;;;7.60;99.90;;;;;;5066445;28;20275;-50
2022/12/30 13:34:53;;;;;;;7.37;1.87;;;7.60;99.90;;;;;;5067718;28;20222;-51
2022/12/30 13:37:28;;;;;;;7.63;2.00;;;7.50;99.90;;;;;;5068162;28;20218;-50
2022/12/30 13:40:01;;;;;;;6.07;1.50;;;7.60;99.90;;;;;;5068469;28;20694;-52
2022/12/30 13:42:55;;;;;;;5.70;1.80;;;7.60;99.90;;;;;;5067825;28;20310;-52
2022/12/30 13:45:26;;;;;;;5.27;1.70;;;7.50;99.90;;;;;;5062716;28;20223;-54
2022/12/30 13:48:05;;;;;;;10.27;2.53;;;7.50;99.90;;;;;;5069477;28;20621;-49
2022/12/30 13:50:35;;;;;;;8.83;1.73;;;7.50;99.90;;;;;;5067613;28;20706;-50
2022/12/30 13:53:05;;;;;;;6.17;1.70;;;7.60;99.90;;;;;;5068276;28;20230;-50
2022/12/30 13:55:48;;;;;;;4.07;1.50;;;7.50;99.90;;;;;;5070512;28;20309;-51
2022/12/30 13:58:23;;;;;;;4.93;1.70;;;7.50;99.90;;;;;;5066211;28;20224;-50
2022/12/30 14:01:28;;;;;;;3.40;1.30;;;7.50;99.90;;;;;;5067385;28;20652;-54
2022/12/30 14:04:35;;;;;;;6.57;1.73;;;7.50;99.90;;;;;;5066720;28;20602;-48
2022/12/30 14:07:03;;;;;;;7.47;2.10;;;7.50;99.90;;;;;;5047990;28;20230;-50
2022/12/30 14:09:33;;;;;;;6.30;1.60;;;7.50;99.90;;;;;;5068781;28;20780;-50